CYYL

Lynn Lake Airport

Lynn Lake, Manitoba, Canada
METAR CYYL 181725Z AUTO 24010G15KT 9SM SCT015 BKN100 BKN120 05/02 A2999 RMK SLP176
Observed Flight Rules
Sep-18 @ 17:25 UTC (29 minutes ago) Visual Flight Rules
Wind Visibility Clouds
240° at 10 knots
 Gusting to 15 knots
9 miles
  • Scattered at 1,500' AGL
  • Broken at 10,000' AGL
  • Broken at 12,000' AGL
Temperatures Readings
Current 5°C / 41°F
Dewpoint 2°C / 36°F
Humidity 81%
Altimeter 29.99" Hg
Pressure 1017.6 hPa
Elevation 357
METAR CYYL 181725Z AUTO 24010G15KT 9SM SCT015 BKN100 BKN120 05/02 A2999 RMK SLP176
Observed Flight Rules
Sep-18 @ 17:25 UTC
(29 minutes ago)
VFR
Wind Visibility
240° at 10 knots
 Gusting to 15 knots
9 miles
Clouds
  • Scattered at 1,500' AGL
  • Broken at 10,000' AGL
  • Broken at 12,000' AGL
Temperature Dewpoint
5°C / 41°F 2°C / 36°F
Humidity Altimeter Pressure
81% 29.99" Hg 1017.6 hPa